Time;durP1;ratioP1;P1;durP2;ratioP2;P2;SDS_P1;SDS_P2;PMS_P1;PMS_P2;Temp;Humidity;BMP_temperature;BMP_pressure;BME280_temperature;BME280_humidity;BME280_pressure;Samples;Min_cycle;Max_cycle;Signal;HPM_P1;HPM_P2
2023/08/21 00:01:33;;;;;;;17.90;7.27;;;22.00;53.60;;;;;;5094598;28;20181;-69
2023/08/21 00:03:58;;;;;;;12.40;6.27;;;22.00;54.00;;;;;;5094936;28;20203;-69
2023/08/21 00:06:27;;;;;;;9.57;7.57;;;21.90;54.30;;;;;;5094688;28;20201;-70
2023/08/21 00:08:53;;;;;;;11.10;7.00;;;21.90;54.10;;;;;;5094669;28;20208;-71
2023/08/21 00:11:18;;;;;;;6.90;6.20;;;21.90;54.40;;;;;;5094735;28;20435;-71
2023/08/21 00:13:44;;;;;;;8.50;7.37;;;21.80;54.60;;;;;;5094509;28;20193;-70
2023/08/21 00:16:11;;;;;;;9.63;8.63;;;21.80;54.80;;;;;;5094876;28;20607;-71
2023/08/21 00:18:36;;;;;;;7.87;6.70;;;21.90;55.00;;;;;;5094570;28;20418;-70
2023/08/21 00:21:02;;;;;;;9.87;8.87;;;21.80;55.10;;;;;;5094543;28;20415;-71
2023/08/21 00:23:27;;;;;;;8.97;8.03;;;21.80;54.90;;;;;;5094164;28;20182;-71
2023/08/21 00:25:53;;;;;;;7.50;6.47;;;21.80;54.80;;;;;;5094328;28;20224;-70
2023/08/21 00:28:18;;;;;;;7.67;6.50;;;21.80;54.50;;;;;;5094354;28;20176;-71
2023/08/21 00:30:44;;;;;;;6.80;6.20;;;21.80;55.00;;;;;;5094404;28;20169;-70
2023/08/21 00:33:09;;;;;;;9.60;8.40;;;21.70;55.20;;;;;;5094607;28;20173;-70
2023/08/21 00:35:35;;;;;;;8.40;7.60;;;21.70;55.20;;;;;;5094650;28;20201;-70
2023/08/21 00:38:00;;;;;;;8.40;6.50;;;21.70;55.20;;;;;;5095204;28;20205;-71
2023/08/21 00:40:26;;;;;;;7.67;6.87;;;21.70;55.20;;;;;;5094237;28;20169;-70
2023/08/21 00:42:51;;;;;;;9.93;7.37;;;21.70;55.60;;;;;;5093552;28;20188;-70
2023/08/21 00:45:17;;;;;;;8.57;6.80;;;21.70;55.80;;;;;;5093781;28;20208;-70
2023/08/21 00:47:43;;;;;;;11.17;7.70;;;21.60;56.20;;;;;;5093982;28;20212;-70
2023/08/21 00:50:11;;;;;;;9.90;7.20;;;21.60;56.60;;;;;;5093838;28;20264;-70
2023/08/21 00:52:39;;;;;;;7.63;6.50;;;21.50;57.00;;;;;;5093551;28;20635;-70
2023/08/21 00:55:06;;;;;;;9.00;6.97;;;21.50;57.20;;;;;;5092525;28;20471;-70
2023/08/21 00:57:32;;;;;;;8.67;7.83;;;21.50;57.20;;;;;;5093729;28;20416;-70
2023/08/21 01:00:00;;;;;;;10.37;6.53;;;21.50;57.40;;;;;;5093729;28;20817;-70
2023/08/21 01:02:25;;;;;;;8.97;7.90;;;21.50;57.90;;;;;;5093336;28;20182;-70
2023/08/21 01:04:51;;;;;;;10.37;8.80;;;21.40;58.10;;;;;;5093445;28;20531;-70
2023/08/21 01:07:17;;;;;;;8.57;7.67;;;21.40;57.20;;;;;;5093592;28;20217;-70
2023/08/21 01:09:51;;;;;;;9.50;7.90;;;21.40;57.50;;;;;;5075897;28;20542;-71
2023/08/21 01:12:29;;;;;;;10.93;8.60;;;21.40;57.60;;;;;;5093455;28;20415;-70
2023/08/21 01:15:05;;;;;;;7.63;6.67;;;21.30;35.80;;;;;;5093739;28;20446;-70
2023/08/21 01:17:39;;;;;;;9.00;7.30;;;21.30;35.80;;;;;;5093303;28;20848;-70
2023/08/21 01:20:10;;;;;;;9.33;6.90;;;21.30;35.70;;;;;;5093228;28;20443;-70
2023/08/21 01:22:38;;;;;;;8.63;7.73;;;21.20;36.70;;;;;;5092933;28;20430;-70
2023/08/21 01:25:05;;;;;;;8.50;7.40;;;21.20;38.00;;;;;;5093231;28;20435;-70
2023/08/21 01:27:33;;;;;;;7.70;6.83;;;21.20;38.10;;;;;;5093186;28;20867;-70
2023/08/21 01:29:59;;;;;;;8.13;7.30;;;21.20;37.20;;;;;;5093035;28;20455;-70
2023/08/21 01:32:53;;;;;;;8.80;7.17;;;21.20;37.60;;;;;;5092747;28;20415;-70
2023/08/21 01:35:20;;;;;;;7.90;6.73;;;21.10;36.80;;;;;;5092995;28;20434;-70
2023/08/21 01:37:45;;;;;;;7.87;7.10;;;21.10;37.60;;;;;;5093074;28;20412;-70
2023/08/21 01:40:11;;;;;;;8.43;7.63;;;21.10;38.30;;;;;;5092939;28;20498;-70
2023/08/21 01:42:36;;;;;;;8.20;7.30;;;21.10;38.60;;;;;;5092747;28;20188;-70
2023/08/21 01:45:02;;;;;;;7.13;6.30;;;21.10;38.60;;;;;;5093108;28;20212;-69
2023/08/21 01:47:28;;;;;;;7.60;6.70;;;21.10;38.70;;;;;;5092828;28;20212;-69
2023/08/21 01:49:53;;;;;;;9.80;8.90;;;21.10;39.20;;;;;;5092713;28;20211;-69
2023/08/21 01:52:19;;;;;;;11.00;7.00;;;21.10;39.40;;;;;;5092528;28;20173;-69
2023/08/21 01:54:47;;;;;;;8.10;7.17;;;21.10;39.70;;;;;;5074925;28;20316;-70
2023/08/21 01:57:13;;;;;;;8.43;7.10;;;21.10;39.60;;;;;;5092620;28;20181;-69
2023/08/21 01:59:39;;;;;;;8.97;7.10;;;21.00;40.50;;;;;;5074441;28;20423;-70
2023/08/21 02:02:04;;;;;;;8.37;7.40;;;21.00;40.70;;;;;;5092309;28;20260;-70
2023/08/21 02:04:30;;;;;;;8.83;6.97;;;20.90;40.60;;;;;;5092418;28;20219;-69
2023/08/21 02:06:55;;;;;;;7.87;6.83;;;20.90;40.60;;;;;;5092079;28;20247;-70
2023/08/21 02:09:21;;;;;;;8.40;7.60;;;20.90;41.20;;;;;;5092368;28;20721;-70
2023/08/21 02:11:46;;;;;;;6.83;5.30;;;20.90;40.70;;;;;;5092147;28;20181;-70
2023/08/21 02:14:12;;;;;;;11.77;8.13;;;20.80;41.60;;;;;;5092356;28;20216;-71
2023/08/21 02:16:37;;;;;;;8.90;6.63;;;20.80;41.90;;;;;;5092691;28;20650;-71
2023/08/21 02:19:03;;;;;;;8.67;7.20;;;20.80;42.10;;;;;;5092325;28;20193;-70
2023/08/21 02:21:29;;;;;;;10.93;8.90;;;20.80;43.10;;;;;;5092116;28;20426;-70
2023/08/21 02:23:54;;;;;;;7.03;6.33;;;20.80;43.90;;;;;;5091968;28;20599;-71
2023/08/21 02:26:20;;;;;;;8.33;6.60;;;20.80;46.60;;;;;;5092050;28;20200;-71
2023/08/21 02:28:46;;;;;;;9.67;8.40;;;20.80;47.50;;;;;;5092184;28;20200;-71
2023/08/21 02:31:12;;;;;;;9.77;7.70;;;20.80;58.10;;;;;;5092259;28;20185;-69
2023/08/21 02:33:37;;;;;;;9.90;8.07;;;20.90;61.00;;;;;;5091759;28;20604;-69
2023/08/21 02:36:03;;;;;;;8.60;7.23;;;20.80;59.20;;;;;;5092068;28;20173;-70
2023/08/21 02:38:29;;;;;;;12.50;6.60;;;20.80;59.20;;;;;;5091977;28;20173;-69
2023/08/21 02:40:54;;;;;;;8.13;7.10;;;20.80;59.10;;;;;;5091980;28;20209;-70
2023/08/21 02:43:20;;;;;;;11.93;7.00;;;21.00;52.50;;;;;;5091743;28;20715;-70
2023/08/21 02:45:46;;;;;;;10.00;7.80;;;20.70;53.40;;;;;;5091705;28;20216;-69
2023/08/21 02:48:11;;;;;;;12.63;7.97;;;20.70;50.90;;;;;;5091949;28;20264;-69
2023/08/21 02:50:37;;;;;;;9.00;7.90;;;20.60;52.70;;;;;;5092132;28;20665;-69
2023/08/21 02:53:03;;;;;;;8.83;8.03;;;20.60;62.00;;;;;;5091829;28;20174;-69
2023/08/21 02:55:28;;;;;;;8.97;8.07;;;20.60;64.30;;;;;;5091824;28;20189;-69
2023/08/21 02:57:54;;;;;;;10.13;7.20;;;20.60;64.30;;;;;;5091998;28;20196;-70
2023/08/21 03:00:20;;;;;;;9.53;7.17;;;20.50;64.40;;;;;;5092123;28;20169;-70
2023/08/21 03:02:45;;;;;;;9.10;7.37;;;20.50;64.90;;;;;;5091568;28;20169;-69
2023/08/21 03:05:11;;;;;;;8.93;7.97;;;20.50;64.80;;;;;;5091672;28;20200;-68
2023/08/21 03:07:36;;;;;;;8.53;7.60;;;20.50;65.70;;;;;;5091696;28;20205;-70
2023/08/21 03:10:02;;;;;;;10.20;7.77;;;20.40;65.50;;;;;;5091680;28;20177;-69
2023/08/21 03:12:28;;;;;;;8.90;8.00;;;20.40;65.70;;;;;;5091391;28;20170;-70
2023/08/21 03:14:54;;;;;;;8.63;7.80;;;20.40;65.80;;;;;;5091808;28;20293;-70
2023/08/21 03:17:19;;;;;;;8.87;8.00;;;20.40;66.30;;;;;;5091726;28;20411;-69
2023/08/21 03:19:45;;;;;;;10.17;8.67;;;20.40;66.80;;;;;;5094424;28;20252;-69
2023/08/21 03:22:10;;;;;;;10.40;8.60;;;20.30;67.50;;;;;;5095468;28;20177;-69
2023/08/21 03:24:36;;;;;;;9.50;8.47;;;20.30;68.20;;;;;;5095421;28;20192;-69
2023/08/21 03:27:02;;;;;;;9.20;7.80;;;20.40;68.40;;;;;;5095517;28;20247;-69
2023/08/21 03:29:27;;;;;;;13.43;8.97;;;20.30;68.60;;;;;;5095610;28;20173;-69
2023/08/21 03:31:54;;;;;;;8.63;7.83;;;20.40;68.50;;;;;;5095301;28;20414;-69
2023/08/21 03:34:20;;;;;;;7.97;6.47;;;20.40;68.40;;;;;;5095342;28;20189;-69
2023/08/21 03:36:47;;;;;;;8.87;7.50;;;20.30;68.10;;;;;;5077423;28;20868;-69
2023/08/21 03:39:13;;;;;;;8.73;7.83;;;20.40;68.00;;;;;;5095436;28;20235;-70
2023/08/21 03:41:39;;;;;;;10.47;7.60;;;20.30;68.30;;;;;;5095747;28;20415;-70
2023/08/21 03:44:04;;;;;;;10.20;8.20;;;20.40;67.60;;;;;;5095527;28;20209;-70
2023/08/21 03:46:30;;;;;;;11.07;9.77;;;20.40;67.40;;;;;;5095750;28;20197;-70
2023/08/21 03:48:55;;;;;;;8.83;7.93;;;20.30;67.60;;;;;;5095937;28;20189;-70
2023/08/21 03:51:21;;;;;;;8.30;7.50;;;20.40;67.40;;;;;;5095110;28;20208;-69
2023/08/21 03:53:46;;;;;;;11.37;7.80;;;20.30;67.10;;;;;;5095239;28;20197;-69
2023/08/21 03:56:12;;;;;;;10.07;9.07;;;20.30;67.90;;;;;;5095126;28;20176;-70
2023/08/21 03:58:37;;;;;;;8.87;7.97;;;20.20;68.00;;;;;;5094952;28;20276;-69
2023/08/21 04:01:03;;;;;;;10.23;8.20;;;20.20;68.20;;;;;;5094884;28;20174;-69
2023/08/21 04:03:28;;;;;;;8.60;7.37;;;20.20;68.60;;;;;;5094615;28;20197;-69
2023/08/21 04:05:56;;;;;;;7.93;7.10;;;20.20;68.40;;;;;;5094584;28;20240;-69
2023/08/21 04:08:22;;;;;;;9.47;7.07;;;20.20;68.10;;;;;;5094598;28;20263;-70
2023/08/21 04:10:48;;;;;;;8.60;7.67;;;20.20;68.00;;;;;;5094674;28;20936;-69
2023/08/21 04:13:13;;;;;;;8.63;7.90;;;20.20;67.80;;;;;;5094424;28;20412;-69
2023/08/21 04:15:39;;;;;;;8.30;7.03;;;20.20;68.60;;;;;;5094315;28;20207;-69
2023/08/21 04:18:05;;;;;;;7.37;6.67;;;20.20;67.60;;;;;;5094615;28;20200;-68
2023/08/21 04:20:31;;;;;;;9.20;8.30;;;20.30;67.60;;;;;;5094412;28;20927;-69
2023/08/21 04:22:57;;;;;;;10.23;8.67;;;20.30;67.50;;;;;;5094411;28;20223;-68
2023/08/21 04:25:22;;;;;;;14.13;7.83;;;20.30;67.40;;;;;;5094328;28;20197;-68
2023/08/21 04:27:48;;;;;;;7.93;7.13;;;20.30;67.70;;;;;;5076142;28;20262;-69
2023/08/21 04:30:13;;;;;;;13.90;8.93;;;20.30;67.20;;;;;;5094079;28;20215;-69
2023/08/21 04:32:39;;;;;;;10.40;8.40;;;20.20;66.90;;;;;;5094332;28;20173;-69
2023/08/21 04:35:05;;;;;;;9.13;8.17;;;20.20;67.50;;;;;;5094227;28;20196;-70
2023/08/21 04:37:31;;;;;;;10.50;8.63;;;20.20;68.00;;;;;;5094134;28;20177;-70
2023/08/21 04:39:56;;;;;;;8.50;7.67;;;20.20;68.30;;;;;;5094272;28;20418;-70
2023/08/21 04:42:22;;;;;;;10.90;9.00;;;20.30;68.90;;;;;;5093888;28;20411;-69
2023/08/21 04:44:48;;;;;;;9.87;7.87;;;20.30;68.40;;;;;;5093795;28;20220;-69
2023/08/21 04:47:26;;;;;;;9.23;8.23;;;20.30;68.60;;;;;;5093875;28;20197;-69
2023/08/21 04:49:52;;;;;;;11.67;8.37;;;20.40;67.40;;;;;;5094157;28;20193;-73
2023/08/21 04:52:18;;;;;;;9.93;8.00;;;20.40;67.50;;;;;;5094112;28;20411;-75
2023/08/21 04:54:43;;;;;;;9.93;9.00;;;20.40;66.50;;;;;;5093812;28;20427;-74
2023/08/21 04:57:09;;;;;;;14.90;8.70;;;20.50;66.80;;;;;;5093692;28;20422;-74
2023/08/21 04:59:36;;;;;;;9.90;7.67;;;20.50;66.00;;;;;;5093748;28;20650;-74
2023/08/21 05:02:02;;;;;;;9.37;8.37;;;20.60;66.00;;;;;;5093542;28;20275;-74
2023/08/21 05:04:27;;;;;;;9.43;8.43;;;20.60;65.90;;;;;;5093513;28;20793;-74
2023/08/21 05:06:53;;;;;;;8.83;8.03;;;20.60;66.00;;;;;;5093481;28;20477;-74
2023/08/21 05:09:18;;;;;;;9.30;6.93;;;20.60;65.30;;;;;;5093405;28;20214;-73
2023/08/21 05:11:44;;;;;;;8.40;7.27;;;20.70;64.90;;;;;;5093326;28;20177;-74
2023/08/21 05:14:09;;;;;;;14.07;8.47;;;20.70;64.50;;;;;;5093353;28;20674;-73
2023/08/21 05:16:35;;;;;;;11.13;7.37;;;20.80;63.10;;;;;;5093384;28;20227;-74
2023/08/21 05:19:01;;;;;;;9.53;8.60;;;20.80;62.30;;;;;;5075104;28;20189;-73
2023/08/21 05:21:27;;;;;;;9.33;7.83;;;20.90;61.70;;;;;;5093034;28;20200;-74
2023/08/21 05:23:52;;;;;;;9.60;8.57;;;20.90;61.10;;;;;;5093015;28;20203;-74
2023/08/21 05:26:19;;;;;;;11.50;10.30;;;21.00;61.20;;;;;;5093057;28;20955;-74
2023/08/21 05:28:45;;;;;;;15.23;9.13;;;21.10;60.60;;;;;;5093670;28;20185;-74
2023/08/21 05:31:10;;;;;;;10.40;8.80;;;21.20;59.70;;;;;;5092952;28;20927;-74
2023/08/21 05:33:36;;;;;;;9.73;8.23;;;21.40;59.50;;;;;;5092720;28;20256;-75
2023/08/21 05:36:02;;;;;;;8.43;7.60;;;21.60;58.50;;;;;;5093082;28;20189;-74
2023/08/21 05:38:27;;;;;;;12.17;10.00;;;21.90;56.30;;;;;;5074686;28;20185;-74
2023/08/21 05:40:53;;;;;;;9.13;8.00;;;22.20;54.00;;;;;;5092674;28;20547;-74
2023/08/21 05:43:18;;;;;;;9.60;7.90;;;22.80;51.10;;;;;;5092413;28;20177;-75
2023/08/21 05:45:44;;;;;;;8.30;7.47;;;24.20;41.60;;;;;;5092755;28;20225;-73
2023/08/21 05:48:09;;;;;;;10.90;6.53;;;26.00;32.00;;;;;;5092832;28;20177;-75
2023/08/21 05:50:36;;;;;;;6.90;5.63;;;27.60;25.70;;;;;;5092634;28;20180;-75
2023/08/21 05:53:03;;;;;;;10.00;6.70;;;28.90;22.80;;;;;;5092349;28;20533;-75
2023/08/21 05:55:29;;;;;;;7.07;6.37;;;30.10;19.30;;;;;;5092593;28;20427;-75
2023/08/21 05:57:55;;;;;;;6.40;5.80;;;31.60;15.20;;;;;;5093054;28;20408;-74
2023/08/21 06:00:20;;;;;;;7.47;6.70;;;32.60;12.70;;;;;;5092593;28;20260;-73
2023/08/21 06:02:46;;;;;;;7.27;6.57;;;33.60;10.90;;;;;;5092489;28;20651;-73
2023/08/21 06:05:12;;;;;;;8.07;7.27;;;34.60;8.80;;;;;;5092652;28;20686;-73
2023/08/21 06:07:37;;;;;;;7.67;7.07;;;35.20;4.50;;;;;;5092603;28;20209;-73
2023/08/21 06:10:04;;;;;;;8.10;7.50;;;36.00;1.00;;;;;;5092495;28;20173;-74
2023/08/21 06:12:30;;;;;;;8.23;7.63;;;36.30;1.00;;;;;;5092039;28;20177;-73
2023/08/21 06:14:55;;;;;;;9.53;8.30;;;36.60;1.00;;;;;;5092188;28;20435;-73
2023/08/21 06:17:22;;;;;;;7.87;7.13;;;36.60;1.00;;;;;;5092480;28;20681;-73
2023/08/21 06:19:47;;;;;;;8.63;8.00;;;37.30;1.00;;;;;;5092440;28;20181;-73
2023/08/21 06:22:13;;;;;;;9.10;8.40;;;38.00;2.50;;;;;;5092151;28;20420;-73
2023/08/21 06:24:38;;;;;;;10.67;8.57;;;38.50;1.30;;;;;;5092344;28;20209;-73
2023/08/21 06:27:04;;;;;;;10.07;8.33;;;38.80;1.10;;;;;;5092089;28;20766;-72
2023/08/21 06:29:30;;;;;;;8.27;7.67;;;38.80;1.00;;;;;;5092375;28;20571;-70
2023/08/21 06:31:56;;;;;;;8.50;7.83;;;38.90;1.00;;;;;;5091417;28;20555;-73
2023/08/21 06:34:21;;;;;;;12.33;8.77;;;39.00;1.00;;;;;;5092159;28;20189;-74
2023/08/21 06:36:47;;;;;;;8.80;8.23;;;39.10;1.00;;;;;;5092233;28;20411;-73
2023/08/21 06:39:12;;;;;;;9.97;9.00;;;39.70;1.00;;;;;;5092065;28;20173;-73
2023/08/21 06:41:38;;;;;;;8.33;7.73;;;40.00;1.00;;;;;;5091746;28;20539;-73
2023/08/21 06:44:04;;;;;;;8.97;8.23;;;40.00;1.00;;;;;;5091974;28;20254;-73
2023/08/21 06:46:29;;;;;;;9.07;8.37;;;40.20;1.00;;;;;;5091903;28;20197;-74
2023/08/21 06:48:55;;;;;;;10.73;9.93;;;40.30;1.00;;;;;;5092470;28;20666;-73
2023/08/21 06:51:20;;;;;;;10.80;9.83;;;39.70;1.00;;;;;;5092501;28;20181;-72
2023/08/21 06:53:46;;;;;;;9.77;8.90;;;40.00;1.00;;;;;;5092381;28;20678;-73
2023/08/21 06:56:12;;;;;;;8.37;7.60;;;40.10;1.00;;;;;;5100555;28;20185;-73
2023/08/21 06:58:37;;;;;;;8.97;8.27;;;40.20;1.00;;;;;;5094732;28;20443;-76
2023/08/21 07:01:03;;;;;;;12.43;9.90;;;39.70;1.00;;;;;;5096330;28;20188;-71
2023/08/21 07:03:28;;;;;;;9.83;8.93;;;39.70;1.00;;;;;;5095657;28;20177;-71
2023/08/21 07:05:59;;;;;;;12.60;10.90;;;40.60;1.00;;;;;;5095852;28;20197;-71
2023/08/21 07:08:25;;;;;;;9.43;8.70;;;41.00;1.00;;;;;;5084637;28;20642;-71
2023/08/21 07:10:51;;;;;;;9.77;8.87;;;41.30;1.00;;;;;;5091719;28;20919;-71
2023/08/21 07:13:17;;;;;;;9.73;8.80;;;41.00;1.00;;;;;;5077243;28;20419;-70
2023/08/21 07:15:42;;;;;;;9.03;8.23;;;41.20;1.00;;;;;;5095476;28;20438;-71
2023/08/21 07:18:08;;;;;;;8.93;8.13;;;41.80;1.00;;;;;;5095324;28;20185;-71
2023/08/21 07:20:34;;;;;;;10.27;9.47;;;42.40;1.00;;;;;;5095290;28;20267;-71
2023/08/21 07:23:00;;;;;;;9.57;8.63;;;42.60;1.00;;;;;;5095309;28;20706;-70
2023/08/21 07:25:26;;;;;;;9.17;8.37;;;42.60;1.00;;;;;;5095218;28;20674;-71
2023/08/21 07:27:55;;;;;;;9.70;8.07;;;41.60;1.00;;;;;;5092480;28;20461;-69
2023/08/21 07:30:22;;;;;;;9.03;8.33;;;41.20;1.00;;;;;;5094850;28;20173;-71
2023/08/21 07:32:48;;;;;;;12.77;8.80;;;41.90;1.00;;;;;;5096097;28;20411;-70
2023/08/21 07:35:14;;;;;;;8.97;8.27;;;42.20;1.00;;;;;;5097554;28;20435;-72
2023/08/21 07:37:43;;;;;;;11.43;10.43;;;41.90;1.00;;;;;;5095584;28;20499;-72
2023/08/21 07:40:08;;;;;;;9.17;8.37;;;41.40;1.00;;;;;;5095143;28;20292;-72
2023/08/21 07:42:34;;;;;;;10.70;9.63;;;40.60;1.00;;;;;;5093724;28;20526;-72
2023/08/21 07:45:00;;;;;;;8.70;8.00;;;39.70;1.00;;;;;;5095572;28;20275;-72
2023/08/21 07:47:27;;;;;;;11.10;10.20;;;38.60;1.00;;;;;;5095316;28;20713;-72
2023/08/21 07:49:53;;;;;;;9.63;8.00;;;37.50;1.00;;;;;;5091665;28;20271;-72
2023/08/21 07:52:18;;;;;;;9.67;8.77;;;36.90;1.00;;;;;;5095320;28;20878;-72
2023/08/21 07:54:44;;;;;;;7.60;7.00;;;36.10;1.50;;;;;;5095139;28;20434;-72
2023/08/21 07:57:12;;;;;;;8.57;7.77;;;35.90;2.50;;;;;;5086986;28;20264;-70
2023/08/21 07:59:39;;;;;;;9.20;8.27;;;35.40;2.30;;;;;;5079386;28;20563;-70
2023/08/21 08:02:04;;;;;;;10.40;9.10;;;35.60;2.40;;;;;;5089801;28;20480;-72
2023/08/21 08:04:30;;;;;;;9.90;8.90;;;35.40;2.40;;;;;;5074548;28;20992;-73
2023/08/21 08:06:56;;;;;;;8.90;8.30;;;35.80;2.50;;;;;;5081138;28;20201;-72
2023/08/21 08:09:24;;;;;;;8.00;7.37;;;36.10;2.10;;;;;;5079377;28;20297;-72
2023/08/21 08:11:50;;;;;;;7.97;7.37;;;36.70;1.60;;;;;;5094124;28;20178;-70
2023/08/21 08:14:16;;;;;;;9.23;8.30;;;37.90;1.00;;;;;;5094444;28;20453;-70
2023/08/21 08:16:41;;;;;;;8.27;7.57;;;38.90;1.00;;;;;;5077300;28;20188;-70
2023/08/21 08:19:07;;;;;;;18.93;8.47;;;40.40;1.00;;;;;;5094576;28;20191;-70
2023/08/21 08:21:33;;;;;;;10.63;9.53;;;40.90;1.00;;;;;;5094962;28;20585;-70
2023/08/21 08:23:59;;;;;;;9.00;8.30;;;41.10;1.00;;;;;;5085580;28;20455;-71
2023/08/21 08:26:24;;;;;;;9.70;9.00;;;41.80;1.00;;;;;;5094371;28;20209;-71
2023/08/21 08:28:50;;;;;;;10.83;9.50;;;41.80;1.00;;;;;;5094091;28;20184;-71
2023/08/21 08:31:20;;;;;;;9.43;8.67;;;42.10;1.00;;;;;;5094483;28;20199;-70
2023/08/21 08:33:45;;;;;;;8.33;7.73;;;43.20;1.00;;;;;;5093770;28;20596;-71
2023/08/21 08:36:11;;;;;;;8.80;8.20;;;43.50;1.00;;;;;;5079661;28;20522;-71
2023/08/21 08:38:37;;;;;;;8.90;8.20;;;43.40;1.00;;;;;;5079006;28;20196;-72
2023/08/21 08:41:14;;;;;;;10.20;9.30;;;44.30;1.00;;;;;;5093627;28;20169;-72
2023/08/21 08:43:40;;;;;;;8.93;8.20;;;43.60;1.00;;;;;;5093540;28;20720;-71
2023/08/21 08:46:07;;;;;;;10.87;9.83;;;42.60;1.00;;;;;;5094526;28;20451;-70
2023/08/21 08:48:37;;;;;;;9.63;8.93;;;41.90;1.00;;;;;;5108937;28;20780;-70
2023/08/21 08:51:06;;;;;;;11.23;10.07;;;42.50;1.00;;;;;;5096213;28;20414;-70
2023/08/21 08:53:32;;;;;;;10.37;9.50;;;42.60;1.00;;;;;;5113995;28;20411;-71
2023/08/21 08:55:58;;;;;;;10.33;9.40;;;43.30;1.00;;;;;;5095201;28;20432;-71
2023/08/21 08:58:23;;;;;;;8.73;7.83;;;42.30;1.00;;;;;;5073077;28;20427;-71
2023/08/21 09:00:49;;;;;;;9.20;8.43;;;39.70;1.00;;;;;;5073570;28;20205;-71
2023/08/21 09:03:15;;;;;;;10.00;8.17;;;37.30;1.00;;;;;;5073554;28;20181;-70
2023/08/21 09:05:41;;;;;;;8.13;7.50;;;35.50;1.00;;;;;;5079745;28;20205;-70
2023/08/21 09:08:06;;;;;;;9.33;8.33;;;34.20;3.40;;;;;;5093547;28;20408;-70
2023/08/21 09:10:32;;;;;;;9.40;8.43;;;33.40;4.70;;;;;;5095902;28;20168;-70
2023/08/21 09:13:01;;;;;;;8.20;7.60;;;32.70;6.10;;;;;;5113411;28;20204;-70
2023/08/21 09:15:30;;;;;;;8.93;8.13;;;32.40;7.10;;;;;;5092533;28;20190;-70
2023/08/21 09:17:56;;;;;;;8.53;7.83;;;32.10;7.80;;;;;;5072129;28;20599;-70
2023/08/21 09:20:21;;;;;;;7.60;6.40;;;31.80;8.50;;;;;;5080294;28;20427;-70
2023/08/21 09:22:55;;;;;;;8.93;7.70;;;31.40;9.70;;;;;;5093044;28;20410;-70
2023/08/21 09:25:20;;;;;;;9.10;8.33;;;31.40;9.70;;;;;;5093354;28;20189;-70
2023/08/21 09:27:51;;;;;;;7.90;7.23;;;31.50;10.20;;;;;;5092775;28;20454;-70
2023/08/21 09:30:16;;;;;;;8.30;7.40;;;31.20;9.60;;;;;;5093094;28;20168;-70
2023/08/21 09:33:04;;;;;;;9.10;8.10;;;31.20;10.00;;;;;;5092615;28;20423;-71
2023/08/21 09:35:33;;;;;;;8.23;7.33;;;31.30;10.30;;;;;;5091888;28;20344;-70
2023/08/21 09:37:59;;;;;;;7.57;6.97;;;31.30;9.70;;;;;;5092606;28;20423;-70
2023/08/21 09:40:24;;;;;;;22.43;8.37;;;31.20;9.70;;;;;;5092531;28;20450;-70
2023/08/21 09:42:54;;;;;;;8.07;7.37;;;31.10;11.30;;;;;;5092352;28;20496;-70
2023/08/21 09:45:24;;;;;;;9.33;7.47;;;31.00;11.60;;;;;;5092060;28;20209;-70
2023/08/21 09:47:52;;;;;;;8.60;7.90;;;30.80;11.60;;;;;;5092403;28;20443;-70
2023/08/21 09:50:19;;;;;;;7.90;7.20;;;30.90;12.30;;;;;;5092544;28;20420;-70
2023/08/21 09:52:45;;;;;;;7.33;6.63;;;31.00;12.40;;;;;;5092122;28;20415;-70
2023/08/21 09:55:13;;;;;;;9.67;7.77;;;31.10;12.10;;;;;;5092522;28;20961;-71
2023/08/21 09:57:40;;;;;;;7.80;7.10;;;31.10;12.30;;;;;;5092482;28;20453;-71
2023/08/21 10:00:19;;;;;;;8.60;7.37;;;31.20;11.40;;;;;;5092908;28;20437;-72
2023/08/21 10:02:49;;;;;;;10.60;7.97;;;31.20;10.30;;;;;;5088912;28;20430;-72
2023/08/21 10:05:19;;;;;;;8.13;7.33;;;31.20;10.50;;;;;;5091476;28;20469;-72
2023/08/21 10:07:47;;;;;;;8.73;7.57;;;31.30;10.30;;;;;;5092336;28;20447;-70
2023/08/21 10:10:13;;;;;;;9.43;7.70;;;31.40;9.70;;;;;;5092191;28;20930;-70
2023/08/21 10:12:39;;;;;;;8.67;7.77;;;31.30;9.70;;;;;;5092237;28;20498;-70
2023/08/21 10:15:08;;;;;;;7.00;6.40;;;31.40;9.70;;;;;;5092322;28;20424;-70
2023/08/21 10:17:35;;;;;;;19.80;8.10;;;31.50;9.80;;;;;;5091614;28;20172;-70
2023/08/21 10:20:05;;;;;;;7.30;6.70;;;31.50;9.80;;;;;;5092448;28;20420;-70
2023/08/21 10:22:45;;;;;;;9.47;6.50;;;31.40;9.70;;;;;;5092746;28;20419;-70
2023/08/21 10:25:22;;;;;;;7.43;6.83;;;31.50;10.00;;;;;;5092682;28;20431;-70
2023/08/21 10:27:56;;;;;;;8.00;7.20;;;31.50;9.80;;;;;;5090873;28;20455;-70
2023/08/21 10:30:24;;;;;;;7.90;6.60;;;31.60;9.80;;;;;;5092922;28;20534;-70
2023/08/21 10:32:51;;;;;;;8.00;7.30;;;31.60;9.90;;;;;;5090957;28;20451;-71
2023/08/21 10:35:22;;;;;;;8.00;7.33;;;31.80;10.50;;;;;;5091219;28;20530;-70
2023/08/21 10:38:07;;;;;;;7.57;6.90;;;31.80;9.50;;;;;;5091979;28;20415;-72
2023/08/21 10:40:33;;;;;;;10.37;7.00;;;31.90;9.90;;;;;;5092496;28;20923;-72
2023/08/21 10:42:59;;;;;;;8.13;7.43;;;32.00;10.00;;;;;;5092259;28;20461;-70
2023/08/21 10:45:25;;;;;;;8.87;7.97;;;31.90;8.60;;;;;;5092261;28;20446;-72
2023/08/21 10:47:50;;;;;;;7.97;7.07;;;32.00;9.00;;;;;;5092504;28;20205;-71
2023/08/21 10:50:16;;;;;;;7.87;7.20;;;32.00;8.80;;;;;;5092515;28;20181;-71
2023/08/21 10:52:46;;;;;;;7.27;6.63;;;32.00;8.40;;;;;;5092542;28;20569;-71
2023/08/21 10:55:13;;;;;;;7.63;7.00;;;32.10;7.90;;;;;;5073938;28;20457;-71
2023/08/21 10:57:43;;;;;;;9.67;8.80;;;32.20;8.20;;;;;;5092379;28;20895;-71
2023/08/21 11:00:13;;;;;;;9.30;8.33;;;32.30;7.90;;;;;;5091851;28;20411;-71
2023/08/21 11:02:41;;;;;;;8.60;7.80;;;32.30;7.80;;;;;;5092092;28;20496;-71
2023/08/21 11:05:08;;;;;;;9.53;8.73;;;32.40;7.60;;;;;;5091924;28;20511;-71
2023/08/21 11:07:39;;;;;;;7.50;6.90;;;32.50;7.40;;;;;;5073639;28;20482;-71
2023/08/21 11:10:07;;;;;;;9.03;7.50;;;32.70;7.10;;;;;;5092090;28;20421;-71
2023/08/21 11:12:32;;;;;;;20.10;10.57;;;32.60;6.70;;;;;;5091793;28;20587;-71
2023/08/21 11:14:58;;;;;;;8.63;7.93;;;32.60;6.00;;;;;;5091574;28;20459;-71
2023/08/21 11:17:23;;;;;;;7.73;7.13;;;32.60;6.70;;;;;;5091684;28;20665;-71
2023/08/21 11:19:50;;;;;;;7.53;6.93;;;32.50;6.70;;;;;;5091701;28;20176;-71
2023/08/21 11:22:15;;;;;;;7.40;6.70;;;32.50;6.70;;;;;;5082885;28;20182;-71
2023/08/21 11:24:43;;;;;;;8.63;7.93;;;32.60;6.30;;;;;;5071875;28;21006;-71
2023/08/21 11:27:10;;;;;;;8.80;8.00;;;32.70;6.10;;;;;;5077555;28;20246;-71
2023/08/21 11:29:40;;;;;;;7.73;7.03;;;32.70;6.10;;;;;;5084569;28;20420;-71
2023/08/21 11:32:14;;;;;;;9.43;8.47;;;32.80;5.80;;;;;;5091774;28;20412;-71
2023/08/21 11:34:41;;;;;;;8.87;7.63;;;32.80;5.80;;;;;;5090981;28;20442;-71
2023/08/21 11:37:07;;;;;;;8.80;8.03;;;32.80;5.80;;;;;;5091162;28;20470;-71
2023/08/21 11:39:43;;;;;;;8.60;7.90;;;32.70;6.00;;;;;;5092029;28;20407;-71
2023/08/21 11:42:11;;;;;;;7.30;6.70;;;32.70;6.30;;;;;;5095403;28;20799;-71
2023/08/21 11:44:45;;;;;;;8.43;7.10;;;32.60;6.30;;;;;;5095127;28;20463;-71
2023/08/21 11:47:11;;;;;;;11.10;7.50;;;32.70;6.40;;;;;;5077401;28;20465;-71
2023/08/21 11:49:42;;;;;;;17.80;7.20;;;32.80;5.80;;;;;;5095138;28;20475;-71
2023/08/21 11:52:08;;;;;;;10.23;9.20;;;33.00;5.90;;;;;;5094895;28;20403;-71
2023/08/21 11:54:36;;;;;;;8.20;7.40;;;33.10;6.20;;;;;;5095119;28;20431;-71
2023/08/21 11:57:06;;;;;;;8.13;7.43;;;33.20;5.00;;;;;;5095046;28;20923;-71
2023/08/21 11:59:32;;;;;;;8.90;8.00;;;33.00;5.20;;;;;;5094997;28;20396;-71
2023/08/21 12:01:57;;;;;;;8.93;8.10;;;33.00;4.90;;;;;;5076641;28;20415;-71
2023/08/21 12:04:24;;;;;;;9.07;8.17;;;33.10;5.50;;;;;;5094831;28;20197;-70
2023/08/21 12:06:50;;;;;;;9.13;8.33;;;33.20;4.80;;;;;;5094878;28;20618;-71
2023/08/21 12:09:15;;;;;;;11.50;8.50;;;33.30;4.70;;;;;;5094815;28;20545;-70
2023/08/21 12:11:41;;;;;;;8.27;7.47;;;33.40;4.50;;;;;;5094611;28;20532;-70
2023/08/21 12:14:07;;;;;;;10.90;6.90;;;33.50;4.00;;;;;;5094388;28;20276;-71
2023/08/21 12:16:33;;;;;;;9.73;7.70;;;33.60;4.00;;;;;;5110736;28;20184;-71
2023/08/21 12:18:58;;;;;;;8.97;8.10;;;33.70;3.80;;;;;;5110918;28;20180;-71
2023/08/21 12:21:25;;;;;;;9.80;8.03;;;33.50;3.90;;;;;;5074500;28;20180;-71
2023/08/21 12:23:50;;;;;;;10.30;9.30;;;33.50;4.10;;;;;;5074211;28;20209;-70
2023/08/21 12:26:20;;;;;;;9.30;8.40;;;33.60;4.10;;;;;;5074115;28;20444;-70
2023/08/21 12:28:47;;;;;;;11.33;9.17;;;33.70;4.00;;;;;;5074172;28;20571;-71
2023/08/21 12:31:13;;;;;;;11.73;8.57;;;33.60;3.40;;;;;;5074278;28;20446;-71
2023/08/21 12:33:38;;;;;;;8.47;7.70;;;33.60;3.60;;;;;;5073729;28;20414;-69
2023/08/21 12:36:04;;;;;;;9.63;7.73;;;33.60;3.80;;;;;;5074090;28;20655;-71
2023/08/21 12:38:29;;;;;;;7.77;7.17;;;33.80;3.80;;;;;;5073656;28;20177;-71
2023/08/21 12:40:55;;;;;;;8.93;8.20;;;34.00;4.50;;;;;;5073754;28;20227;-71
2023/08/21 12:43:21;;;;;;;8.20;7.57;;;34.00;2.80;;;;;;5073446;28;20274;-71
2023/08/21 12:45:47;;;;;;;9.23;8.40;;;33.90;3.50;;;;;;5073772;28;20255;-71